sensor_id;sensor_type;location;lat;lon;timestamp;temperature;humidity
79489;SHT31;68949;53.176;18.088;2023-04-24T00:01:06;13.26;78.97
79489;SHT31;68949;53.176;18.088;2023-04-24T00:03:33;13.30;78.71
79489;SHT31;68949;53.176;18.088;2023-04-24T00:06:00;13.33;78.63
79489;SHT31;68949;53.176;18.088;2023-04-24T00:08:28;13.36;78.76
79489;SHT31;68949;53.176;18.088;2023-04-24T00:10:55;13.40;78.78
79489;SHT31;68949;53.176;18.088;2023-04-24T00:13:23;13.44;78.82
79489;SHT31;68949;53.176;18.088;2023-04-24T00:15:50;13.48;78.81
79489;SHT31;68949;53.176;18.088;2023-04-24T00:18:17;13.51;78.77
79489;SHT31;68949;53.176;18.088;2023-04-24T00:20:44;13.51;78.81
79489;SHT31;68949;53.176;18.088;2023-04-24T00:23:10;13.50;78.68
79489;SHT31;68949;53.176;18.088;2023-04-24T00:25:37;13.49;78.90
79489;SHT31;68949;53.176;18.088;2023-04-24T00:28:05;13.48;79.23
79489;SHT31;68949;53.176;18.088;2023-04-24T00:30:32;13.43;79.41
79489;SHT31;68949;53.176;18.088;2023-04-24T00:32:58;13.42;79.15
79489;SHT31;68949;53.176;18.088;2023-04-24T00:35:25;13.42;79.11
79489;SHT31;68949;53.176;18.088;2023-04-24T00:37:52;13.44;79.05
79489;SHT31;68949;53.176;18.088;2023-04-24T00:40:18;13.45;78.92
79489;SHT31;68949;53.176;18.088;2023-04-24T00:42:45;13.44;79.06
79489;SHT31;68949;53.176;18.088;2023-04-24T00:45:12;13.46;79.18
79489;SHT31;68949;53.176;18.088;2023-04-24T00:47:39;13.47;79.30
79489;SHT31;68949;53.176;18.088;2023-04-24T00:50:08;13.43;79.30
79489;SHT31;68949;53.176;18.088;2023-04-24T00:52:35;13.38;79.35
79489;SHT31;68949;53.176;18.088;2023-04-24T00:55:02;13.35;79.48
79489;SHT31;68949;53.176;18.088;2023-04-24T00:57:29;13.33;79.44
79489;SHT31;68949;53.176;18.088;2023-04-24T00:59:56;13.35;79.49
79489;SHT31;68949;53.176;18.088;2023-04-24T01:02:24;13.41;79.59
79489;SHT31;68949;53.176;18.088;2023-04-24T01:04:52;13.43;79.55
79489;SHT31;68949;53.176;18.088;2023-04-24T01:07:19;13.40;79.57
79489;SHT31;68949;53.176;18.088;2023-04-24T01:09:47;13.41;79.55
79489;SHT31;68949;53.176;18.088;2023-04-24T01:12:19;13.41;79.71
79489;SHT31;68949;53.176;18.088;2023-04-24T01:14:46;13.41;79.69
79489;SHT31;68949;53.176;18.088;2023-04-24T01:17:12;13.43;79.81
79489;SHT31;68949;53.176;18.088;2023-04-24T01:19:39;13.42;79.89
79489;SHT31;68949;53.176;18.088;2023-04-24T01:22:10;13.41;80.04
79489;SHT31;68949;53.176;18.088;2023-04-24T01:24:40;13.38;79.93
79489;SHT31;68949;53.176;18.088;2023-04-24T01:27:08;13.39;80.00
79489;SHT31;68949;53.176;18.088;2023-04-24T01:29:37;13.39;79.97
79489;SHT31;68949;53.176;18.088;2023-04-24T01:32:05;13.36;80.10
79489;SHT31;68949;53.176;18.088;2023-04-24T01:34:32;13.33;80.21
79489;SHT31;68949;53.176;18.088;2023-04-24T01:37:00;13.32;80.18
79489;SHT31;68949;53.176;18.088;2023-04-24T01:39:27;13.34;80.23
79489;SHT31;68949;53.176;18.088;2023-04-24T01:41:55;13.36;80.28
79489;SHT31;68949;53.176;18.088;2023-04-24T01:44:22;13.39;80.17
79489;SHT31;68949;53.176;18.088;2023-04-24T01:46:50;13.37;80.20
79489;SHT31;68949;53.176;18.088;2023-04-24T01:49:16;13.37;80.09
79489;SHT31;68949;53.176;18.088;2023-04-24T01:51:45;13.34;80.10
79489;SHT31;68949;53.176;18.088;2023-04-24T01:54:12;13.31;80.14
79489;SHT31;68949;53.176;18.088;2023-04-24T01:56:40;13.28;80.17
79489;SHT31;68949;53.176;18.088;2023-04-24T01:59:10;13.26;80.27
79489;SHT31;68949;53.176;18.088;2023-04-24T02:01:38;13.24;80.27
79489;SHT31;68949;53.176;18.088;2023-04-24T02:04:06;13.22;80.23
79489;SHT31;68949;53.176;18.088;2023-04-24T02:06:35;13.21;80.36
79489;SHT31;68949;53.176;18.088;2023-04-24T02:09:02;13.19;80.48
79489;SHT31;68949;53.176;18.088;2023-04-24T02:11:29;13.16;80.68
79489;SHT31;68949;53.176;18.088;2023-04-24T02:13:57;13.12;80.79
79489;SHT31;68949;53.176;18.088;2023-04-24T02:16:24;13.11;80.98
79489;SHT31;68949;53.176;18.088;2023-04-24T02:18:52;13.11;80.84
79489;SHT31;68949;53.176;18.088;2023-04-24T02:21:18;13.13;80.73
79489;SHT31;68949;53.176;18.088;2023-04-24T02:23:45;13.15;80.57
79489;SHT31;68949;53.176;18.088;2023-04-24T02:26:13;13.18;80.67
79489;SHT31;68949;53.176;18.088;2023-04-24T02:28:39;13.19;80.73
79489;SHT31;68949;53.176;18.088;2023-04-24T02:31:06;13.18;80.68
79489;SHT31;68949;53.176;18.088;2023-04-24T02:33:33;13.20;80.64
79489;SHT31;68949;53.176;18.088;2023-04-24T02:35:59;13.21;80.62
79489;SHT31;68949;53.176;18.088;2023-04-24T02:38:26;13.21;80.66
79489;SHT31;68949;53.176;18.088;2023-04-24T02:40:53;13.20;80.64
79489;SHT31;68949;53.176;18.088;2023-04-24T02:43:20;13.19;80.61
79489;SHT31;68949;53.176;18.088;2023-04-24T02:45:47;13.17;80.70
79489;SHT31;68949;53.176;18.088;2023-04-24T02:48:14;13.21;80.69
79489;SHT31;68949;53.176;18.088;2023-04-24T02:50:41;13.22;80.59
79489;SHT31;68949;53.176;18.088;2023-04-24T02:53:08;13.27;80.51
79489;SHT31;68949;53.176;18.088;2023-04-24T02:55:34;13.32;80.40
79489;SHT31;68949;53.176;18.088;2023-04-24T02:58:01;13.35;80.37
79489;SHT31;68949;53.176;18.088;2023-04-24T03:00:28;13.36;80.39
79489;SHT31;68949;53.176;18.088;2023-04-24T03:02:56;13.39;80.29
79489;SHT31;68949;53.176;18.088;2023-04-24T03:05:23;13.39;80.25
79489;SHT31;68949;53.176;18.088;2023-04-24T03:07:50;13.38;80.32
79489;SHT31;68949;53.176;18.088;2023-04-24T03:10:18;13.39;80.26
79489;SHT31;68949;53.176;18.088;2023-04-24T03:12:45;13.40;80.22
79489;SHT31;68949;53.176;18.088;2023-04-24T03:15:12;13.41;80.26
79489;SHT31;68949;53.176;18.088;2023-04-24T03:17:39;13.40;80.30
79489;SHT31;68949;53.176;18.088;2023-04-24T03:20:06;13.38;80.38
79489;SHT31;68949;53.176;18.088;2023-04-24T03:22:35;13.36;80.38
79489;SHT31;68949;53.176;18.088;2023-04-24T03:25:03;13.36;80.40
79489;SHT31;68949;53.176;18.088;2023-04-24T03:27:31;13.36;80.40
79489;SHT31;68949;53.176;18.088;2023-04-24T03:30:02;13.36;80.40
79489;SHT31;68949;53.176;18.088;2023-04-24T03:32:38;13.36;80.39
79489;SHT31;68949;53.176;18.088;2023-04-24T03:35:07;13.36;80.35
79489;SHT31;68949;53.176;18.088;2023-04-24T03:37:35;13.35;80.40
79489;SHT31;68949;53.176;18.088;2023-04-24T03:40:20;13.33;80.58
79489;SHT31;68949;53.176;18.088;2023-04-24T03:42:47;13.30;80.89
79489;SHT31;68949;53.176;18.088;2023-04-24T03:45:13;13.29;81.12
79489;SHT31;68949;53.176;18.088;2023-04-24T03:47:41;13.30;81.27
79489;SHT31;68949;53.176;18.088;2023-04-24T03:50:08;13.33;81.29
79489;SHT31;68949;53.176;18.088;2023-04-24T03:52:36;13.31;81.25
79489;SHT31;68949;53.176;18.088;2023-04-24T03:55:03;13.32;81.27
79489;SHT31;68949;53.176;18.088;2023-04-24T03:57:31;13.31;81.23
79489;SHT31;68949;53.176;18.088;2023-04-24T04:00:13;13.32;81.18
79489;SHT31;68949;53.176;18.088;2023-04-24T04:02:44;13.35;81.14
79489;SHT31;68949;53.176;18.088;2023-04-24T04:05:11;13.35;81.17
79489;SHT31;68949;53.176;18.088;2023-04-24T04:07:37;13.36;81.20
79489;SHT31;68949;53.176;18.088;2023-04-24T04:10:04;13.37;81.08
79489;SHT31;68949;53.176;18.088;2023-04-24T04:12:33;13.35;81.00
79489;SHT31;68949;53.176;18.088;2023-04-24T04:15:00;13.31;81.04
79489;SHT31;68949;53.176;18.088;2023-04-24T04:17:27;13.32;80.99
79489;SHT31;68949;53.176;18.088;2023-04-24T04:19:54;13.34;81.00
79489;SHT31;68949;53.176;18.088;2023-04-24T04:22:21;13.35;81.12
79489;SHT31;68949;53.176;18.088;2023-04-24T04:24:50;13.37;81.02
79489;SHT31;68949;53.176;18.088;2023-04-24T04:27:19;13.40;80.86
79489;SHT31;68949;53.176;18.088;2023-04-24T04:29:59;13.36;81.23
79489;SHT31;68949;53.176;18.088;2023-04-24T04:32:31;13.35;81.45
79489;SHT31;68949;53.176;18.088;2023-04-24T04:34:59;13.35;81.52
79489;SHT31;68949;53.176;18.088;2023-04-24T04:37:30;13.36;81.40
79489;SHT31;68949;53.176;18.088;2023-04-24T04:40:22;13.38;81.29
79489;SHT31;68949;53.176;18.088;2023-04-24T04:42:54;13.41;81.29
79489;SHT31;68949;53.176;18.088;2023-04-24T04:45:21;13.42;81.44
79489;SHT31;68949;53.176;18.088;2023-04-24T04:48:08;13.41;81.59
79489;SHT31;68949;53.176;18.088;2023-04-24T04:50:36;13.40;81.60
79489;SHT31;68949;53.176;18.088;2023-04-24T04:53:05;13.44;81.56
79489;SHT31;68949;53.176;18.088;2023-04-24T04:55:34;13.46;81.60
79489;SHT31;68949;53.176;18.088;2023-04-24T04:58:07;13.49;81.57
79489;SHT31;68949;53.176;18.088;2023-04-24T05:00:34;13.58;81.50
79489;SHT31;68949;53.176;18.088;2023-04-24T05:03:11;13.66;81.47
79489;SHT31;68949;53.176;18.088;2023-04-24T05:05:38;13.70;81.42
79489;SHT31;68949;53.176;18.088;2023-04-24T05:08:09;13.74;81.28
79489;SHT31;68949;53.176;18.088;2023-04-24T05:10:36;13.82;81.10
79489;SHT31;68949;53.176;18.088;2023-04-24T05:13:03;14.08;80.74
79489;SHT31;68949;53.176;18.088;2023-04-24T05:15:31;14.29;80.36
79489;SHT31;68949;53.176;18.088;2023-04-24T05:17:58;14.54;79.95
79489;SHT31;68949;53.176;18.088;2023-04-24T05:20:25;14.59;79.86
79489;SHT31;68949;53.176;18.088;2023-04-24T05:22:52;14.63;79.84
79489;SHT31;68949;53.176;18.088;2023-04-24T05:25:19;14.64;79.90
79489;SHT31;68949;53.176;18.088;2023-04-24T05:27:59;14.65;80.08
79489;SHT31;68949;53.176;18.088;2023-04-24T05:30:26;14.64;79.88
79489;SHT31;68949;53.176;18.088;2023-04-24T05:32:54;14.63;79.64
79489;SHT31;68949;53.176;18.088;2023-04-24T05:35:21;14.64;79.58
79489;SHT31;68949;53.176;18.088;2023-04-24T05:37:47;14.61;79.40
79489;SHT31;68949;53.176;18.088;2023-04-24T05:40:14;14.59;79.41
79489;SHT31;68949;53.176;18.088;2023-04-24T05:42:42;14.59;79.36
79489;SHT31;68949;53.176;18.088;2023-04-24T05:45:09;14.54;79.47
79489;SHT31;68949;53.176;18.088;2023-04-24T05:47:42;14.68;79.37
79489;SHT31;68949;53.176;18.088;2023-04-24T05:50:11;15.12;78.57
79489;SHT31;68949;53.176;18.088;2023-04-24T05:52:38;15.53;77.71
79489;SHT31;68949;53.176;18.088;2023-04-24T05:55:10;15.91;76.98
79489;SHT31;68949;53.176;18.088;2023-04-24T05:57:38;16.14;76.53
79489;SHT31;68949;53.176;18.088;2023-04-24T06:00:05;16.26;75.91
79489;SHT31;68949;53.176;18.088;2023-04-24T06:02:46;16.34;75.67
79489;SHT31;68949;53.176;18.088;2023-04-24T06:05:13;16.45;75.82
79489;SHT31;68949;53.176;18.088;2023-04-24T06:07:41;16.51;75.69
79489;SHT31;68949;53.176;18.088;2023-04-24T06:10:08;16.43;74.79
79489;SHT31;68949;53.176;18.088;2023-04-24T06:12:40;16.25;74.86
79489;SHT31;68949;53.176;18.088;2023-04-24T06:15:11;16.07;74.80
79489;SHT31;68949;53.176;18.088;2023-04-24T06:17:53;15.94;74.92
79489;SHT31;68949;53.176;18.088;2023-04-24T06:20:20;15.84;74.89
79489;SHT31;68949;53.176;18.088;2023-04-24T06:22:47;15.70;74.86
79489;SHT31;68949;53.176;18.088;2023-04-24T06:25:14;15.68;75.15
79489;SHT31;68949;53.176;18.088;2023-04-24T06:27:41;15.65;75.20
79489;SHT31;68949;53.176;18.088;2023-04-24T06:30:08;15.65;75.14
79489;SHT31;68949;53.176;18.088;2023-04-24T06:32:35;15.66;75.21
79489;SHT31;68949;53.176;18.088;2023-04-24T06:35:02;15.65;74.93
79489;SHT31;68949;53.176;18.088;2023-04-24T06:37:30;15.70;74.98
79489;SHT31;68949;53.176;18.088;2023-04-24T06:39:58;15.80;74.36
79489;SHT31;68949;53.176;18.088;2023-04-24T06:42:25;15.92;74.54
79489;SHT31;68949;53.176;18.088;2023-04-24T06:44:52;16.00;74.76
79489;SHT31;68949;53.176;18.088;2023-04-24T06:47:18;16.04;74.47
79489;SHT31;68949;53.176;18.088;2023-04-24T06:49:45;16.04;74.21
79489;SHT31;68949;53.176;18.088;2023-04-24T06:52:12;15.99;74.23
79489;SHT31;68949;53.176;18.088;2023-04-24T06:54:38;15.95;74.34
79489;SHT31;68949;53.176;18.088;2023-04-24T06:57:05;15.94;74.55
79489;SHT31;68949;53.176;18.088;2023-04-24T06:59:32;15.87;74.21
79489;SHT31;68949;53.176;18.088;2023-04-24T07:01:58;15.82;74.42
79489;SHT31;68949;53.176;18.088;2023-04-24T07:04:25;15.82;74.47
79489;SHT31;68949;53.176;18.088;2023-04-24T07:06:52;15.83;74.42
79489;SHT31;68949;53.176;18.088;2023-04-24T07:09:22;15.86;74.32
79489;SHT31;68949;53.176;18.088;2023-04-24T07:11:51;15.92;74.45
79489;SHT31;68949;53.176;18.088;2023-04-24T07:14:19;15.97;74.35
79489;SHT31;68949;53.176;18.088;2023-04-24T07:16:46;16.02;74.26
79489;SHT31;68949;53.176;18.088;2023-04-24T07:19:13;16.14;74.22
79489;SHT31;68949;53.176;18.088;2023-04-24T07:21:40;16.32;73.84
79489;SHT31;68949;53.176;18.088;2023-04-24T07:24:07;16.47;73.22
79489;SHT31;68949;53.176;18.088;2023-04-24T07:26:37;16.58;72.85
79489;SHT31;68949;53.176;18.088;2023-04-24T07:29:05;16.76;72.14
79489;SHT31;68949;53.176;18.088;2023-04-24T07:31:33;16.91;71.29
79489;SHT31;68949;53.176;18.088;2023-04-24T07:33:59;16.96;71.17
79489;SHT31;68949;53.176;18.088;2023-04-24T07:36:27;16.96;70.72
79489;SHT31;68949;53.176;18.088;2023-04-24T07:38:54;17.00;70.95
79489;SHT31;68949;53.176;18.088;2023-04-24T07:41:22;17.05;70.72
79489;SHT31;68949;53.176;18.088;2023-04-24T07:43:50;17.06;70.08
79489;SHT31;68949;53.176;18.088;2023-04-24T07:46:17;17.04;70.24
79489;SHT31;68949;53.176;18.088;2023-04-24T07:48:44;17.04;69.91
79489;SHT31;68949;53.176;18.088;2023-04-24T07:51:12;17.01;69.28
79489;SHT31;68949;53.176;18.088;2023-04-24T07:53:39;17.01;68.85
79489;SHT31;68949;53.176;18.088;2023-04-24T07:56:06;17.04;68.68
79489;SHT31;68949;53.176;18.088;2023-04-24T07:58:33;17.08;68.42
79489;SHT31;68949;53.176;18.088;2023-04-24T08:01:01;17.14;68.83
79489;SHT31;68949;53.176;18.088;2023-04-24T08:03:28;17.20;68.66
79489;SHT31;68949;53.176;18.088;2023-04-24T08:05:54;17.30;68.28
79489;SHT31;68949;53.176;18.088;2023-04-24T08:08:21;17.38;67.79
79489;SHT31;68949;53.176;18.088;2023-04-24T08:10:49;17.44;66.83
79489;SHT31;68949;53.176;18.088;2023-04-24T08:13:16;17.50;66.59
79489;SHT31;68949;53.176;18.088;2023-04-24T08:15:43;17.59;66.24
79489;SHT31;68949;53.176;18.088;2023-04-24T08:18:10;17.70;65.25
79489;SHT31;68949;53.176;18.088;2023-04-24T08:20:39;17.77;64.44
79489;SHT31;68949;53.176;18.088;2023-04-24T08:23:06;17.89;64.98
79489;SHT31;68949;53.176;18.088;2023-04-24T08:25:32;18.04;64.60
79489;SHT31;68949;53.176;18.088;2023-04-24T08:28:05;18.25;64.10
79489;SHT31;68949;53.176;18.088;2023-04-24T08:30:33;18.41;63.54
79489;SHT31;68949;53.176;18.088;2023-04-24T08:32:59;18.59;63.74
79489;SHT31;68949;53.176;18.088;2023-04-24T08:35:26;18.80;62.66
79489;SHT31;68949;53.176;18.088;2023-04-24T08:37:53;18.98;61.88
79489;SHT31;68949;53.176;18.088;2023-04-24T08:40:22;19.04;61.71
79489;SHT31;68949;53.176;18.088;2023-04-24T08:42:57;19.01;60.72
79489;SHT31;68949;53.176;18.088;2023-04-24T08:45:26;19.08;60.58
79489;SHT31;68949;53.176;18.088;2023-04-24T08:47:53;19.11;60.59
79489;SHT31;68949;53.176;18.088;2023-04-24T08:50:21;19.14;60.15
79489;SHT31;68949;53.176;18.088;2023-04-24T08:52:52;19.10;59.57
79489;SHT31;68949;53.176;18.088;2023-04-24T08:55:20;19.04;59.50
79489;SHT31;68949;53.176;18.088;2023-04-24T08:57:51;18.99;59.67
79489;SHT31;68949;53.176;18.088;2023-04-24T09:00:20;18.92;59.44
79489;SHT31;68949;53.176;18.088;2023-04-24T09:02:48;18.78;58.70
79489;SHT31;68949;53.176;18.088;2023-04-24T09:05:16;18.69;59.11
79489;SHT31;68949;53.176;18.088;2023-04-24T09:07:49;18.64;59.05
79489;SHT31;68949;53.176;18.088;2023-04-24T09:10:22;18.59;59.23
79489;SHT31;68949;53.176;18.088;2023-04-24T09:12:51;18.56;58.80
79489;SHT31;68949;53.176;18.088;2023-04-24T09:15:19;18.56;58.45
79489;SHT31;68949;53.176;18.088;2023-04-24T09:17:46;18.53;58.43
79489;SHT31;68949;53.176;18.088;2023-04-24T09:20:14;18.45;58.56
79489;SHT31;68949;53.176;18.088;2023-04-24T09:22:41;18.39;58.92
79489;SHT31;68949;53.176;18.088;2023-04-24T09:25:09;18.29;58.52
79489;SHT31;68949;53.176;18.088;2023-04-24T09:27:42;18.18;59.05
79489;SHT31;68949;53.176;18.088;2023-04-24T09:30:11;18.03;59.02
79489;SHT31;68949;53.176;18.088;2023-04-24T09:32:38;17.88;59.58
79489;SHT31;68949;53.176;18.088;2023-04-24T09:35:10;17.75;60.73
79489;SHT31;68949;53.176;18.088;2023-04-24T09:37:39;17.65;61.19
79489;SHT31;68949;53.176;18.088;2023-04-24T09:40:16;17.58;61.46
79489;SHT31;68949;53.176;18.088;2023-04-24T09:42:52;17.58;61.99
79489;SHT31;68949;53.176;18.088;2023-04-24T09:45:27;17.64;61.82
79489;SHT31;68949;53.176;18.088;2023-04-24T09:48:01;17.71;61.69
79489;SHT31;68949;53.176;18.088;2023-04-24T09:50:29;17.77;61.71
79489;SHT31;68949;53.176;18.088;2023-04-24T09:53:01;17.83;61.54
79489;SHT31;68949;53.176;18.088;2023-04-24T09:55:31;17.87;60.91
79489;SHT31;68949;53.176;18.088;2023-04-24T09:57:58;17.93;61.12
79489;SHT31;68949;53.176;18.088;2023-04-24T10:00:28;18.04;61.05
79489;SHT31;68949;53.176;18.088;2023-04-24T10:02:58;18.23;60.62
79489;SHT31;68949;53.176;18.088;2023-04-24T10:05:34;18.60;60.82
79489;SHT31;68949;53.176;18.088;2023-04-24T10:08:06;18.92;60.23
79489;SHT31;68949;53.176;18.088;2023-04-24T10:10:40;19.09;59.27
79489;SHT31;68949;53.176;18.088;2023-04-24T10:13:10;19.17;59.00
79489;SHT31;68949;53.176;18.088;2023-04-24T10:15:40;19.26;58.55
79489;SHT31;68949;53.176;18.088;2023-04-24T10:18:08;19.33;58.12
79489;SHT31;68949;53.176;18.088;2023-04-24T10:20:38;19.38;58.02
79489;SHT31;68949;53.176;18.088;2023-04-24T10:23:07;19.40;57.95
79489;SHT31;68949;53.176;18.088;2023-04-24T10:25:34;19.40;57.21
79489;SHT31;68949;53.176;18.088;2023-04-24T10:28:03;19.35;57.00
79489;SHT31;68949;53.176;18.088;2023-04-24T10:30:31;19.28;57.35
79489;SHT31;68949;53.176;18.088;2023-04-24T10:33:04;19.27;57.68
79489;SHT31;68949;53.176;18.088;2023-04-24T10:35:35;19.30;57.67
79489;SHT31;68949;53.176;18.088;2023-04-24T10:38:09;19.44;58.18
79489;SHT31;68949;53.176;18.088;2023-04-24T10:40:41;19.68;58.09
79489;SHT31;68949;53.176;18.088;2023-04-24T10:43:09;19.96;56.85
79489;SHT31;68949;53.176;18.088;2023-04-24T10:45:38;20.20;56.13
79489;SHT31;68949;53.176;18.088;2023-04-24T10:48:06;20.27;55.65
79489;SHT31;68949;53.176;18.088;2023-04-24T10:50:46;20.33;55.46
79489;SHT31;68949;53.176;18.088;2023-04-24T10:53:23;20.38;55.11
79489;SHT31;68949;53.176;18.088;2023-04-24T10:55:57;20.43;54.23
79489;SHT31;68949;53.176;18.088;2023-04-24T10:58:45;20.56;55.29
79489;SHT31;68949;53.176;18.088;2023-04-24T11:01:31;20.71;54.94
79489;SHT31;68949;53.176;18.088;2023-04-24T11:03:59;20.69;54.50
79489;SHT31;68949;53.176;18.088;2023-04-24T11:06:29;20.69;54.57
79489;SHT31;68949;53.176;18.088;2023-04-24T11:09:03;20.70;54.76
79489;SHT31;68949;53.176;18.088;2023-04-24T11:11:34;20.72;54.38
79489;SHT31;68949;53.176;18.088;2023-04-24T11:14:04;20.71;54.38
79489;SHT31;68949;53.176;18.088;2023-04-24T11:16:43;20.64;54.13
79489;SHT31;68949;53.176;18.088;2023-04-24T11:21:54;20.54;54.70
79489;SHT31;68949;53.176;18.088;2023-04-24T11:24:35;20.46;55.21
79489;SHT31;68949;53.176;18.088;2023-04-24T11:27:14;20.34;55.46
79489;SHT31;68949;53.176;18.088;2023-04-24T11:29:46;20.20;55.36
79489;SHT31;68949;53.176;18.088;2023-04-24T11:32:29;20.10;55.78
79489;SHT31;68949;53.176;18.088;2023-04-24T11:35:03;20.15;56.12
79489;SHT31;68949;53.176;18.088;2023-04-24T11:37:36;20.30;56.07
79489;SHT31;68949;53.176;18.088;2023-04-24T11:40:07;20.46;55.06
79489;SHT31;68949;53.176;18.088;2023-04-24T11:42:40;20.56;55.33
79489;SHT31;68949;53.176;18.088;2023-04-24T11:45:13;20.61;54.83
79489;SHT31;68949;53.176;18.088;2023-04-24T11:47:52;20.59;54.98
79489;SHT31;68949;53.176;18.088;2023-04-24T11:50:21;20.75;55.14
79489;SHT31;68949;53.176;18.088;2023-04-24T11:52:52;21.00;54.97
79489;SHT31;68949;53.176;18.088;2023-04-24T11:57:46;21.43;53.84
79489;SHT31;68949;53.176;18.088;2023-04-24T12:00:20;21.42;52.86
79489;SHT31;68949;53.176;18.088;2023-04-24T12:02:50;21.29;53.43
79489;SHT31;68949;53.176;18.088;2023-04-24T12:05:21;21.23;53.63
79489;SHT31;68949;53.176;18.088;2023-04-24T12:07:49;21.16;53.22
79489;SHT31;68949;53.176;18.088;2023-04-24T12:10:20;21.03;53.29
79489;SHT31;68949;53.176;18.088;2023-04-24T12:12:49;20.99;53.44
79489;SHT31;68949;53.176;18.088;2023-04-24T12:15:18;20.91;53.17
79489;SHT31;68949;53.176;18.088;2023-04-24T12:17:46;20.81;53.13
79489;SHT31;68949;53.176;18.088;2023-04-24T12:20:14;20.92;53.50
79489;SHT31;68949;53.176;18.088;2023-04-24T12:25:23;21.09;52.26
79489;SHT31;68949;53.176;18.088;2023-04-24T12:27:55;20.92;51.78
79489;SHT31;68949;53.176;18.088;2023-04-24T12:30:43;20.73;52.35
79489;SHT31;68949;53.176;18.088;2023-04-24T12:33:18;20.64;52.38
79489;SHT31;68949;53.176;18.088;2023-04-24T12:35:47;20.59;52.03
79489;SHT31;68949;53.176;18.088;2023-04-24T12:38:21;20.57;51.84
79489;SHT31;68949;53.176;18.088;2023-04-24T12:41:01;20.64;51.72
79489;SHT31;68949;53.176;18.088;2023-04-24T12:43:36;20.72;51.68
79489;SHT31;68949;53.176;18.088;2023-04-24T12:46:03;20.80;50.68
79489;SHT31;68949;53.176;18.088;2023-04-24T12:48:31;20.81;50.84
79489;SHT31;68949;53.176;18.088;2023-04-24T12:50:58;20.86;51.24
79489;SHT31;68949;53.176;18.088;2023-04-24T12:53:28;20.83;50.63
79489;SHT31;68949;53.176;18.088;2023-04-24T12:55:56;20.83;50.83
79489;SHT31;68949;53.176;18.088;2023-04-24T12:58:23;20.77;50.17
79489;SHT31;68949;53.176;18.088;2023-04-24T13:00:50;20.70;49.64
79489;SHT31;68949;53.176;18.088;2023-04-24T13:03:17;20.71;49.89
79489;SHT31;68949;53.176;18.088;2023-04-24T13:05:45;20.76;49.81
79489;SHT31;68949;53.176;18.088;2023-04-24T13:08:11;20.78;48.91
79489;SHT31;68949;53.176;18.088;2023-04-24T13:10:39;20.73;47.65
79489;SHT31;68949;53.176;18.088;2023-04-24T13:13:07;20.68;47.28
79489;SHT31;68949;53.176;18.088;2023-04-24T13:15:34;20.60;47.15
79489;SHT31;68949;53.176;18.088;2023-04-24T13:18:01;20.51;46.96
79489;SHT31;68949;53.176;18.088;2023-04-24T13:20:28;20.43;46.52
79489;SHT31;68949;53.176;18.088;2023-04-24T13:22:55;20.36;46.32
79489;SHT31;68949;53.176;18.088;2023-04-24T13:25:22;20.33;46.81
79489;SHT31;68949;53.176;18.088;2023-04-24T13:27:49;20.30;46.96
79489;SHT31;68949;53.176;18.088;2023-04-24T13:30:17;20.28;46.65
79489;SHT31;68949;53.176;18.088;2023-04-24T13:32:44;20.26;46.89
79489;SHT31;68949;53.176;18.088;2023-04-24T13:35:10;20.31;47.78
79489;SHT31;68949;53.176;18.088;2023-04-24T13:37:37;20.36;48.70
79489;SHT31;68949;53.176;18.088;2023-04-24T13:40:04;20.40;49.46
79489;SHT31;68949;53.176;18.088;2023-04-24T13:42:32;20.47;50.03
79489;SHT31;68949;53.176;18.088;2023-04-24T13:44:59;20.65;50.48
79489;SHT31;68949;53.176;18.088;2023-04-24T13:47:26;20.83;50.79
79489;SHT31;68949;53.176;18.088;2023-04-24T13:49:52;20.96;51.51
79489;SHT31;68949;53.176;18.088;2023-04-24T13:52:20;20.95;52.25
79489;SHT31;68949;53.176;18.088;2023-04-24T13:54:47;20.92;52.21
79489;SHT31;68949;53.176;18.088;2023-04-24T13:57:14;20.84;52.17
79489;SHT31;68949;53.176;18.088;2023-04-24T13:59:42;20.69;51.90
79489;SHT31;68949;53.176;18.088;2023-04-24T14:02:09;20.53;52.05
79489;SHT31;68949;53.176;18.088;2023-04-24T14:04:38;20.33;51.03
79489;SHT31;68949;53.176;18.088;2023-04-24T14:07:05;20.20;51.57
79489;SHT31;68949;53.176;18.088;2023-04-24T14:09:32;20.13;52.24
79489;SHT31;68949;53.176;18.088;2023-04-24T14:11:59;20.01;52.18
79489;SHT31;68949;53.176;18.088;2023-04-24T14:14:27;19.91;52.29
79489;SHT31;68949;53.176;18.088;2023-04-24T14:16:58;19.84;52.53
79489;SHT31;68949;53.176;18.088;2023-04-24T14:19:25;19.78;52.25
79489;SHT31;68949;53.176;18.088;2023-04-24T14:21:51;19.74;52.10
79489;SHT31;68949;53.176;18.088;2023-04-24T14:24:18;19.73;52.52
79489;SHT31;68949;53.176;18.088;2023-04-24T14:26:45;19.76;53.07
79489;SHT31;68949;53.176;18.088;2023-04-24T14:29:12;19.75;53.13
79489;SHT31;68949;53.176;18.088;2023-04-24T14:31:38;19.73;53.31
79489;SHT31;68949;53.176;18.088;2023-04-24T14:34:05;19.69;53.67
79489;SHT31;68949;53.176;18.088;2023-04-24T14:36:32;19.66;54.17
79489;SHT31;68949;53.176;18.088;2023-04-24T14:38:58;19.68;54.58
79489;SHT31;68949;53.176;18.088;2023-04-24T14:41:25;19.61;54.49
79489;SHT31;68949;53.176;18.088;2023-04-24T14:43:52;19.63;54.69
79489;SHT31;68949;53.176;18.088;2023-04-24T14:46:19;19.69;54.58
79489;SHT31;68949;53.176;18.088;2023-04-24T14:48:46;19.76;54.84
79489;SHT31;68949;53.176;18.088;2023-04-24T14:51:13;19.84;54.57
79489;SHT31;68949;53.176;18.088;2023-04-24T14:53:40;19.88;54.47
79489;SHT31;68949;53.176;18.088;2023-04-24T14:56:06;19.90;54.59
79489;SHT31;68949;53.176;18.088;2023-04-24T14:58:33;19.95;54.37
79489;SHT31;68949;53.176;18.088;2023-04-24T15:01:01;19.97;53.49
79489;SHT31;68949;53.176;18.088;2023-04-24T15:03:27;19.85;53.13
79489;SHT31;68949;53.176;18.088;2023-04-24T15:05:55;19.73;53.44
79489;SHT31;68949;53.176;18.088;2023-04-24T15:08:22;19.70;52.96
79489;SHT31;68949;53.176;18.088;2023-04-24T15:10:48;19.61;53.02
79489;SHT31;68949;53.176;18.088;2023-04-24T15:13:15;19.47;52.88
79489;SHT31;68949;53.176;18.088;2023-04-24T15:15:42;19.25;53.16
79489;SHT31;68949;53.176;18.088;2023-04-24T15:18:09;19.14;53.47
79489;SHT31;68949;53.176;18.088;2023-04-24T15:20:37;19.05;53.69
79489;SHT31;68949;53.176;18.088;2023-04-24T15:23:08;19.00;53.75
79489;SHT31;68949;53.176;18.088;2023-04-24T15:25:36;19.00;53.87
79489;SHT31;68949;53.176;18.088;2023-04-24T15:28:04;19.02;54.18
79489;SHT31;68949;53.176;18.088;2023-04-24T15:30:32;19.05;54.27
79489;SHT31;68949;53.176;18.088;2023-04-24T15:32:59;19.05;54.33